Red Deer, Canada
Current Conditions -  °F | °C
As of 7:19 PM on Wednesday 17 Dec 2014 (Local Time) from CYQF Reporting Station
Moderate Fog Moderate Fog  
Wind Chill: 14°   Ceiling: Unl
Heat Index: 14°   Visibility: 0mi
Dew Point: 12°   Wind: 0mph
Humidity: 93%   Direction: NA
Pressure: 29.82"   Gusts: NA
Location:  52.26°N, 113.82°W
Report Text: CYQF 180219Z 00000KT 0SM FZFG VV000 M10/M11 A2982 RMK FG8 SLP155
Loading
Personal Weather Stations






























Interactive Weather Map New forecast layout! Learn more

10-Day Weather Forecast

Advertisements
Track Severe Weather on mobile